createdAt,value
2019-05-10T00:00:20.300Z,38.23
2019-05-10T00:05:43.249Z,33.50
2019-05-10T00:10:52.824Z,36.27
2019-05-10T00:15:57.654Z,38.27
2019-05-10T00:21:02.782Z,34.00
2019-05-10T00:26:07.786Z,34.83
2019-05-10T00:31:12.554Z,35.07
2019-05-10T00:36:17.384Z,40.93
2019-05-10T00:41:22.144Z,37.90
2019-05-10T00:46:26.986Z,38.20
2019-05-10T00:51:31.830Z,41.30
2019-05-10T00:56:36.678Z,38.03
2019-05-10T01:01:41.524Z,42.97
2019-05-10T01:06:46.969Z,47.50
2019-05-10T01:11:52.308Z,37.27
2019-05-10T01:16:57.733Z,38.43
2019-05-10T01:22:03.159Z,33.93
2019-05-10T01:27:07.995Z,41.93
2019-05-10T01:32:12.938Z,46.30
2019-05-10T01:37:17.695Z,44.20
2019-05-10T01:42:22.539Z,45.93
2019-05-10T01:47:27.288Z,48.20
2019-05-10T01:52:32.125Z,53.03
2019-05-10T01:57:36.949Z,55.47
2019-05-10T02:02:41.808Z,48.97
2019-05-10T02:07:46.638Z,45.60
2019-05-10T02:12:51.490Z,55.60
2019-05-10T02:17:56.336Z,51.73
2019-05-10T02:23:01.202Z,54.73
2019-05-10T02:28:06.042Z,56.40
2019-05-10T02:33:10.881Z,48.07
2019-05-10T02:38:15.708Z,56.73
2019-05-10T02:43:20.556Z,51.07
2019-05-10T02:48:25.394Z,55.20
2019-05-10T02:53:30.225Z,59.33
2019-05-10T02:58:35.068Z,52.27
2019-05-10T03:03:42.916Z,47.40
2019-05-10T03:08:52.265Z,43.73
2019-05-10T03:14:17.835Z,58.93
2019-05-10T03:19:23.563Z,65.37
2019-05-10T03:24:28.565Z,56.30
2019-05-10T03:29:33.430Z,126.93
2019-05-10T03:34:38.248Z,93.83
2019-05-10T03:39:43.069Z,104.07
2019-05-10T03:44:47.924Z,113.13
2019-05-10T03:49:52.769Z,155.10
2019-05-10T03:54:57.618Z,163.40
2019-05-10T04:00:02.449Z,122.47
2019-05-10T04:05:07.886Z,140.20
2019-05-10T04:10:13.839Z,96.50
2019-05-10T04:15:18.688Z,76.50
2019-05-10T04:20:23.519Z,92.37
2019-05-10T04:25:28.423Z,90.20
2019-05-10T04:30:33.253Z,100.53
2019-05-10T04:35:38.083Z,77.67
2019-05-10T04:40:42.922Z,93.00
2019-05-10T04:45:47.762Z,121.60
2019-05-10T04:50:52.584Z,127.33
2019-05-10T04:55:57.440Z,96.30
2019-05-10T05:01:03.539Z,95.57
2019-05-10T05:06:08.373Z,106.63
2019-05-10T05:11:13.216Z,74.03
2019-05-10T05:16:18.122Z,80.47
2019-05-10T05:21:22.973Z,124.80
2019-05-10T05:26:27.665Z,157.40
2019-05-10T05:31:32.507Z,88.27
2019-05-10T05:36:37.260Z,83.53
2019-05-10T05:41:49.284Z,92.40
2019-05-10T05:46:48.677Z,102.60
2019-05-10T05:51:53.518Z,75.13
2019-05-10T05:56:58.277Z,74.63
2019-05-10T06:02:07.421Z,62.53
2019-05-10T06:07:09.504Z,47.30
2019-05-10T06:12:14.596Z,56.37
2019-05-10T06:17:23.778Z,64.33
2019-05-10T06:22:25.879Z,61.33
2019-05-10T06:27:30.654Z,58.37
2019-05-10T06:32:35.503Z,88.70
2019-05-10T06:37:40.361Z,70.43
2019-05-10T06:42:45.311Z,82.67
2019-05-10T06:47:53.284Z,97.17
2019-05-10T06:53:00.494Z,106.07
2019-05-10T06:58:03.427Z,87.80
2019-05-10T07:03:08.264Z,89.47
2019-05-10T07:08:19.726Z,98.87
2019-05-10T07:13:19.549Z,96.20
2019-05-10T07:18:24.401Z,84.70
2019-05-10T07:23:30.178Z,80.30
2019-05-10T07:28:35.305Z,60.93
2019-05-10T07:33:40.316Z,71.13
2019-05-10T07:38:45.176Z,65.93
2019-05-10T07:43:50.138Z,71.83
2019-05-10T07:48:54.843Z,69.13
2019-05-10T07:54:04.537Z,59.83
2019-05-10T07:59:06.356Z,72.87
2019-05-10T08:04:12.985Z,55.33
2019-05-10T08:09:19.228Z,58.87
2019-05-10T08:14:25.460Z,45.27
2019-05-10T08:19:32.814Z,45.90
2019-05-10T08:24:37.082Z,45.07
2019-05-10T08:29:42.906Z,40.23
2019-05-10T08:34:53.060Z,41.67
2019-05-10T08:39:56.033Z,42.90
2019-05-10T08:45:05.450Z,35.27
2019-05-10T08:50:22.530Z,33.37
2019-05-10T08:55:14.375Z,32.70
2019-05-10T09:00:37.143Z,44.70
2019-05-10T09:05:28.936Z,34.07
2019-05-10T09:10:32.409Z,43.93
2019-05-10T09:15:43.273Z,42.90
2019-05-10T09:20:43.909Z,42.30
2019-05-10T09:25:51.712Z,37.20
2019-05-10T09:31:00.670Z,32.10
2019-05-10T09:36:02.958Z,41.63
2019-05-10T09:41:08.057Z,29.67
2019-05-10T09:46:14.137Z,27.70
2019-05-10T09:51:27.955Z,27.13
2019-05-10T09:56:27.609Z,23.30
2019-05-10T10:01:32.518Z,22.17
2019-05-10T10:06:41.800Z,22.10
2019-05-10T10:11:48.084Z,17.33
2019-05-10T10:16:58.203Z,23.07
2019-05-10T10:21:57.654Z,21.90
2019-05-10T10:27:02.672Z,17.97
2019-05-10T10:32:08.020Z,21.30
2019-05-10T10:37:14.691Z,28.93
2019-05-10T10:42:19.601Z,37.30
2019-05-10T10:47:30.445Z,30.83
2019-05-10T10:52:30.959Z,35.53
2019-05-10T10:57:37.399Z,30.27
2019-05-10T11:02:46.768Z,29.40
2019-05-10T11:07:51.044Z,21.90
2019-05-10T11:12:56.278Z,19.47
2019-05-10T11:18:01.823Z,21.07
2019-05-10T11:23:06.596Z,13.83
2019-05-10T11:28:12.020Z,25.60
2019-05-10T11:33:33.659Z,17.63
2019-05-10T11:38:37.410Z,15.80
2019-05-10T11:43:43.586Z,22.83
2019-05-10T11:48:50.734Z,22.93
2019-05-10T11:53:59.513Z,20.63
2019-05-10T11:59:04.737Z,17.63
2019-05-10T12:04:13.116Z,15.00
2019-05-10T12:09:14.227Z,15.17
2019-05-10T12:14:36.729Z,15.93
2019-05-10T12:19:47.875Z,13.80
2019-05-10T12:25:14.144Z,13.20
2019-05-10T12:29:59.526Z,22.47
2019-05-10T12:35:01.433Z,24.43
2019-05-10T12:40:11.865Z,13.83
2019-05-10T12:45:14.530Z,14.80
2019-05-10T12:50:20.896Z,13.67
2019-05-10T12:55:25.740Z,11.30
2019-05-10T13:00:30.749Z,10.93
2019-05-10T13:05:51.080Z,12.63
2019-05-10T13:10:43.293Z,11.43
2019-05-10T13:15:48.747Z,11.50
2019-05-10T13:20:53.620Z,11.00
2019-05-10T13:25:58.554Z,11.73
2019-05-10T13:31:05.696Z,15.17
2019-05-10T13:36:09.885Z,21.03
2019-05-10T13:41:17.740Z,10.47
2019-05-10T13:46:21.321Z,12.07
2019-05-10T13:51:26.187Z,9.23
2019-05-10T13:56:30.973Z,6.63
2019-05-10T14:01:35.940Z,7.30
2019-05-10T14:06:40.821Z,10.83
2019-05-10T14:11:46.947Z,9.43
2019-05-10T14:16:52.356Z,8.63
2019-05-10T14:21:57.180Z,7.90
2019-05-10T14:27:01.947Z,13.17
2019-05-10T14:32:10.421Z,5.43
2019-05-10T14:37:19.788Z,7.43
2019-05-10T14:42:30.347Z,8.70
2019-05-10T14:47:28.586Z,11.23
2019-05-10T14:52:33.426Z,6.20
2019-05-10T14:57:38.450Z,5.30
2019-05-10T15:02:43.542Z,18.37
2019-05-10T15:07:51.057Z,9.10
2019-05-10T15:12:55.109Z,11.27
2019-05-10T15:18:01.854Z,13.90
2019-05-10T15:23:06.668Z,206.90
2019-05-10T15:28:11.513Z,27.27
2019-05-10T15:33:17.844Z,94.87
2019-05-10T15:38:22.708Z,51.70
2019-05-10T15:43:27.537Z,12.57
2019-05-10T15:48:36.517Z,38.50
2019-05-10T15:53:39.104Z,82.67
2019-05-10T15:58:43.917Z,163.63
2019-05-10T16:03:48.674Z,25.80
2019-05-10T16:08:54.048Z,101.17
2019-05-10T16:14:00.150Z,18.17
2019-05-10T16:19:05.370Z,21.23
2019-05-10T16:24:13.387Z,25.90
2019-05-10T16:29:16.656Z,14.30
2019-05-10T16:34:26.504Z,14.30
2019-05-10T16:39:27.949Z,13.10
2019-05-10T16:44:32.823Z,8.33
2019-05-10T16:49:37.644Z,4.47
2019-05-10T16:54:44.316Z,4.77
2019-05-10T16:59:49.443Z,5.93
2019-05-10T17:04:54.614Z,4.60
2019-05-10T17:09:59.631Z,5.47
2019-05-10T17:15:05.434Z,3.93
2019-05-10T17:20:15.859Z,9.60
2019-05-10T17:25:17.854Z,7.07
2019-05-10T17:30:27.601Z,6.07
2019-05-10T17:35:29.266Z,22.97
2019-05-10T17:40:34.304Z,39.17
2019-05-10T17:45:40.512Z,11.27
2019-05-10T17:50:45.996Z,10.23
2019-05-10T17:55:56.482Z,8.30
2019-05-10T18:00:57.677Z,7.27
2019-05-10T18:06:02.713Z,10.17
2019-05-10T18:11:07.576Z,9.97
2019-05-10T18:16:12.434Z,10.80
2019-05-10T18:21:21.760Z,19.13
2019-05-10T18:26:23.769Z,28.67
2019-05-10T18:31:28.710Z,21.73
2019-05-10T18:36:50.499Z,24.43
2019-05-10T18:41:50.288Z,22.77
2019-05-10T18:46:56.615Z,22.87
2019-05-10T18:52:04.547Z,19.93
2019-05-10T18:57:12.333Z,14.03
2019-05-10T19:02:17.696Z,18.43
2019-05-10T19:07:20.752Z,16.10
2019-05-10T19:12:26.070Z,17.77
2019-05-10T19:17:31.279Z,19.63
2019-05-10T19:22:41.336Z,14.97
2019-05-10T19:27:44.151Z,19.57
2019-05-10T19:32:51.127Z,21.33
2019-05-10T19:37:55.740Z,19.70
2019-05-10T19:43:00.582Z,16.70
2019-05-10T19:48:06.017Z,15.53
2019-05-10T19:53:11.351Z,25.67
2019-05-10T19:58:16.181Z,21.10
2019-05-10T20:03:20.951Z,22.47
2019-05-10T20:08:25.784Z,24.27
2019-05-10T20:13:30.541Z,8.27
2019-05-10T20:18:35.460Z,7.67
2019-05-10T20:23:40.295Z,6.23
2019-05-10T20:28:45.146Z,8.47
2019-05-10T20:33:50.113Z,11.03
2019-05-10T20:38:54.951Z,13.87
2019-05-10T20:43:59.798Z,23.80
2019-05-10T20:49:04.669Z,20.80
2019-05-10T20:54:10.115Z,28.63
2019-05-10T20:59:14.801Z,25.73
2019-05-10T21:04:19.524Z,19.57
2019-05-10T21:09:24.333Z,25.13
2019-05-10T21:14:29.133Z,34.47
2019-05-10T21:19:34.059Z,16.83
2019-05-10T21:24:38.941Z,18.77
2019-05-10T21:29:43.782Z,28.70
2019-05-10T21:34:48.660Z,17.70
2019-05-10T21:39:53.530Z,17.93
2019-05-10T21:44:58.329Z,18.13
2019-05-10T21:50:03.589Z,14.43
2019-05-10T21:55:21.055Z,16.07
2019-05-10T22:00:27.892Z,16.17
2019-05-10T22:05:32.713Z,19.67
2019-05-10T22:10:37.562Z,17.53
2019-05-10T22:15:42.407Z,13.27
2019-05-10T22:20:47.333Z,17.23
2019-05-10T22:25:52.088Z,15.93
2019-05-10T22:30:56.934Z,15.00
2019-05-10T22:36:01.784Z,18.10
2019-05-10T22:41:06.541Z,17.57
2019-05-10T22:46:11.305Z,17.30
2019-05-10T22:51:16.145Z,24.67
2019-05-10T22:56:20.978Z,41.40
2019-05-10T23:01:25.779Z,44.97
2019-05-10T23:06:30.642Z,50.30
2019-05-10T23:11:35.466Z,75.77
2019-05-10T23:16:40.267Z,28.80
2019-05-10T23:21:45.286Z,31.33
2019-05-10T23:26:50.186Z,49.83
2019-05-10T23:31:55.040Z,28.50
2019-05-10T23:36:59.916Z,25.70
2019-05-10T23:42:04.808Z,21.60
2019-05-10T23:47:10.201Z,26.93
2019-05-10T23:52:15.018Z,21.87
2019-05-10T23:57:19.810Z,20.13
